Map

Track Data

SID SEASON NUMBER BASIN SUBBASIN NAME ISO_TIME NATURE LAT LON WMO_WIND WMO_PRES WMO_AGENCY TRACK_TYPE DIST2LAND LANDFALL IFLAG USA_AGENCY USA_ATCF_ID USA_LAT USA_LON USA_RECORD USA_STATUS USA_WIND USA_PRES USA_SSHS USA_R34_NE USA_R34_SE USA_R34_SW USA_R34_NW USA_R50_NE USA_R50_SE USA_R50_SW USA_R50_NW USA_R64_NE USA_R64_SE USA_R64_SW USA_R64_NW USA_POCI USA_ROCI USA_RMW USA_EYE TOKYO_LAT TOKYO_LON TOKYO_GRADE TOKYO_WIND TOKYO_PRES TOKYO_R50_DIR TOKYO_R50_LONG TOKYO_R50_SHORT TOKYO_R30_DIR TOKYO_R30_LONG TOKYO_R30_SHORT TOKYO_LAND CMA_LAT CMA_LON CMA_CAT CMA_WIND CMA_PRES HKO_LAT HKO_LON HKO_CAT HKO_WIND HKO_PRES NEWDELHI_LAT NEWDELHI_LON NEWDELHI_GRADE NEWDELHI_WIND NEWDELHI_PRES NEWDELHI_CI NEWDELHI_DP NEWDELHI_POCI REUNION_LAT REUNION_LON REUNION_TYPE REUNION_WIND REUNION_PRES REUNION_TNUM REUNION_CI REUNION_RMW REUNION_R34_NE REUNION_R34_SE REUNION_R34_SW REUNION_R34_NW REUNION_R50_NE REUNION_R50_SE REUNION_R50_SW REUNION_R50_NW REUNION_R64_NE REUNION_R64_SE REUNION_R64_SW REUNION_R64_NW BOM_LAT BOM_LON BOM_TYPE BOM_WIND BOM_PRES BOM_TNUM BOM_CI BOM_RMW BOM_R34_NE BOM_R34_SE BOM_R34_SW BOM_R34_NW BOM_R50_NE BOM_R50_SE BOM_R50_SW BOM_R50_NW BOM_R64_NE BOM_R64_SE BOM_R64_SW BOM_R64_NW BOM_ROCI BOM_POCI BOM_EYE BOM_POS_METHOD BOM_PRES_METHOD NADI_LAT NADI_LON NADI_CAT NADI_WIND NADI_PRES WELLINGTON_LAT WELLINGTON_LON WELLINGTON_WIND WELLINGTON_PRES DS824_LAT DS824_LON DS824_STAGE DS824_WIND DS824_PRES TD9636_LAT TD9636_LON TD9636_STAGE TD9636_WIND TD9636_PRES TD9635_LAT TD9635_LON TD9635_WIND TD9635_PRES TD9635_ROCI NEUMANN_LAT NEUMANN_LON NEUMANN_CLASS NEUMANN_WIND NEUMANN_PRES MLC_LAT MLC_LON MLC_CLASS MLC_WIND MLC_PRES USA_GUST BOM_GUST BOM_GUST_PER REUNION_GUST REUNION_GUST_PER USA_SEAHGT USA_SEARAD_NE USA_SEARAD_SE USA_SEARAD_SW USA_SEARAD_NW STORM_SPEED STORM_DIR
1889234N24126 1889 16 WP MM NOT_NAMED 1889-08-21 16:00:00 NR 24.4000 125.800 main 389 342 __________O___ -1 24.4000 125.800 7 20 322
1889234N24126 1889 16 WP MM NOT_NAMED 1889-08-21 18:00:00 NR 24.9142 125.361 main 342 279 __________P___ -1 24.9142 125.361 7 19 321
1889234N24126 1889 16 WP MM NOT_NAMED 1889-08-21 21:00:00 NR 25.6542 124.689 main 282 247 __________P___ -1 25.6542 124.689 7 19 319
1889234N24126 1889 16 WP MM NOT_NAMED 1889-08-22 00:00:00 NR 26.3164 123.990 main 247 228 __________P___ -1 26.3164 123.990 7 18 313
1889234N24126 1889 16 WP MM NOT_NAMED 1889-08-22 03:00:00 NR 26.8555 123.255 main 228 200 __________P___ -1 26.8555 123.255 7 17 308
1889234N24126 1889 16 WP MM NOT_NAMED 1889-08-22 04:00:00 NR 27.0000 123.000 main 200 151 __________O___ -1 27.0000 123.000 4 16 299
1889234N24126 1889 16 WP MM NOT_NAMED 1889-08-22 06:00:00 NR 27.2320 122.478 main 151 77 __________P___ -1 27.2320 122.478 4 15 292
1889234N24126 1889 16 WP MM NOT_NAMED 1889-08-22 09:00:00 NR 27.4723 121.696 main 77 29 __________P___ -1 27.4723 121.696 4 14 287
1889234N24126 1889 16 WP MM NOT_NAMED 1889-08-22 12:00:00 NR 27.6465 120.972 main 29 0 __________P___ -1 27.6465 120.972 4 12 287
1889234N24126 1889 16 WP MM NOT_NAMED 1889-08-22 15:00:00 NR 27.8263 120.365 main 0 0 __________P___ -1 27.8263 120.365 4 11 290
1889234N24126 1889 16 WP MM NOT_NAMED 1889-08-22 16:00:00 NR 27.9000 120.200 main 0 0 __________O___ -1 27.9000 120.200 7 10 309
1889234N24126 1889 16 WP MM NOT_NAMED 1889-08-22 18:00:00 NR 28.1509 119.908 main 0 0 __________P___ -1 28.1509 119.908 7 10 321
1889234N24126 1889 16 WP MM NOT_NAMED 1889-08-22 21:00:00 NR 28.5673 119.595 main 0 0 __________P___ -1 28.5673 119.595 7 9 333
1889234N24126 1889 16 WP MM NOT_NAMED 1889-08-23 00:00:00 NR 28.9760 119.424 main 0 0 __________P___ -1 28.9760 119.424 7 8 346
1889234N24126 1889 16 WP MM NOT_NAMED 1889-08-23 03:00:00 NR 29.3140 119.385 main 0 0 __________P___ -1 29.3140 119.385 7 6 358
1889234N24126 1889 16 WP MM NOT_NAMED 1889-08-23 04:00:00 NR 29.4000 119.400 main 0 0 __________O___ -1 29.4000 119.400 7 4 16
1889234N24126 1889 16 WP MM NOT_NAMED 1889-08-23 06:00:00 NR 29.4966 119.450 main 0 0 __________P___ -1 29.4966 119.450 7 3 53
1889234N24126 1889 16 WP MM NOT_NAMED 1889-08-23 09:00:00 NR 29.5533 119.632 main 0 0 __________P___ -1 29.5533 119.632 7 4 83
1889234N24126 1889 16 WP MM NOT_NAMED 1889-08-23 12:00:00 NR 29.5429 119.899 main 0 0 __________P___ -1 29.5429 119.899 7 5 95
1889234N24126 1889 16 WP MM NOT_NAMED 1889-08-23 15:00:00 NR 29.5090 120.201 main 0 0 __________P___ -1 29.5090 120.201 7 5 97
1889234N24126 1889 16 WP MM NOT_NAMED 1889-08-23 16:00:00 NR 29.5000 120.300 main 0 0 __________O___ -1 29.5000 120.300 7 5 94
1889234N24126 1889 16 WP MM NOT_NAMED 1889-08-23 18:00:00 NR 29.4928 120.489 main 0 0 __________P___ -1 29.4928 120.489 7 5 89
1889234N24126 1889 16 WP MM NOT_NAMED 1889-08-23 21:00:00 NR 29.5057 120.750 main 0 0 __________P___ -1 29.5057 120.750 7 4 84
1889234N24126 1889 16 WP MM NOT_NAMED 1889-08-24 00:00:00 NR 29.5391 120.992 main 0 0 __________P___ -1 29.5391 120.992 7 4 79
1889234N24126 1889 16 WP MM NOT_NAMED 1889-08-24 03:00:00 NR 29.5840 121.224 main 0 0 __________P___ -1 29.5840 121.224 7 4 77
1889234N24126 1889 16 WP MM NOT_NAMED 1889-08-24 04:00:00 NR 29.6000 121.300 main 0 __________O___ -1 29.6000 121.300 3 4 76

Digital Typhoon Data and Search

About IBTrACS Database

This database is a web-friendly format of International Best Track Archive for Climate Stewardship (IBTrACS), a global best track data archive curated by NOAA dating back to 1842.

Updated: 2021-12-08